sensor_id;sensor_type;location;lat;lon;timestamp;pressure;altitude;pressure_sealevel;temperature;humidity
62712;BME280;48772;55.586;37.730;2023-02-26T00:01:03;97035.88;;;1.45;100.00
62712;BME280;48772;55.586;37.730;2023-02-26T00:03:36;97031.00;;;1.41;100.00
62712;BME280;48772;55.586;37.730;2023-02-26T00:06:02;96979.59;;;1.08;100.00
62712;BME280;48772;55.586;37.730;2023-02-26T00:08:28;96999.59;;;1.30;100.00
62712;BME280;48772;55.586;37.730;2023-02-26T00:10:56;96953.66;;;1.15;100.00
62712;BME280;48772;55.586;37.730;2023-02-26T00:13:22;96985.81;;;1.37;100.00
62712;BME280;48772;55.586;37.730;2023-02-26T00:15:55;96969.19;;;1.27;100.00
62712;BME280;48772;55.586;37.730;2023-02-26T00:18:23;96977.53;;;1.32;100.00
62712;BME280;48772;55.586;37.730;2023-02-26T00:20:49;96907.22;;;0.96;100.00
62712;BME280;48772;55.586;37.730;2023-02-26T00:23:15;96974.09;;;1.41;100.00
62712;BME280;48772;55.586;37.730;2023-02-26T00:25:44;96938.50;;;1.18;100.00
62712;BME280;48772;55.586;37.730;2023-02-26T00:28:10;96942.13;;;1.27;100.00
62712;BME280;48772;55.586;37.730;2023-02-26T00:30:37;96954.59;;;1.34;100.00
62712;BME280;48772;55.586;37.730;2023-02-26T00:33:03;96923.91;;;1.25;100.00
62712;BME280;48772;55.586;37.730;2023-02-26T00:35:31;96893.31;;;1.15;100.00
62712;BME280;48772;55.586;37.730;2023-02-26T00:38:12;96824.41;;;0.73;100.00
62712;BME280;48772;55.586;37.730;2023-02-26T00:40:45;96807.56;;;0.66;100.00
62712;BME280;48772;55.586;37.730;2023-02-26T00:43:23;96790.16;;;0.65;100.00
62712;BME280;48772;55.586;37.730;2023-02-26T00:46:15;96898.06;;;1.30;100.00
62712;BME280;48772;55.586;37.730;2023-02-26T00:48:57;96831.41;;;0.93;100.00
62712;BME280;48772;55.586;37.730;2023-02-26T00:51:47;96861.56;;;1.18;100.00
62712;BME280;48772;55.586;37.730;2023-02-26T00:54:22;96844.53;;;1.03;100.00
62712;BME280;48772;55.586;37.730;2023-02-26T00:56:51;96882.19;;;1.32;100.00
62712;BME280;48772;55.586;37.730;2023-02-26T00:59:18;96826.81;;;0.86;100.00
62712;BME280;48772;55.586;37.730;2023-02-26T01:01:45;96878.53;;;1.04;100.00
62712;BME280;48772;55.586;37.730;2023-02-26T01:04:14;96876.56;;;1.06;100.00
62712;BME280;48772;55.586;37.730;2023-02-26T01:06:43;96868.00;;;0.95;100.00
62712;BME280;48772;55.586;37.730;2023-02-26T01:11:40;96838.69;;;0.90;100.00
62712;BME280;48772;55.586;37.730;2023-02-26T01:14:07;96774.16;;;0.59;100.00
62712;BME280;48772;55.586;37.730;2023-02-26T01:19:52;96862.06;;;1.02;100.00
62712;BME280;48772;55.586;37.730;2023-02-26T01:25:06;96772.63;;;0.56;100.00
62712;BME280;48772;55.586;37.730;2023-02-26T01:27:32;96834.03;;;0.93;100.00
62712;BME280;48772;55.586;37.730;2023-02-26T01:29:58;96850.09;;;1.09;100.00
62712;BME280;48772;55.586;37.730;2023-02-26T01:38:15;96797.13;;;0.76;100.00
62712;BME280;48772;55.586;37.730;2023-02-26T01:43:23;96781.53;;;0.74;100.00
62712;BME280;48772;55.586;37.730;2023-02-26T01:46:36;96832.69;;;1.08;100.00
62712;BME280;48772;55.586;37.730;2023-02-26T01:49:01;96828.41;;;1.07;100.00
62712;BME280;48772;55.586;37.730;2023-02-26T01:51:47;96833.66;;;1.07;100.00
62712;BME280;48772;55.586;37.730;2023-02-26T01:54:14;96817.09;;;1.07;100.00
62712;BME280;48772;55.586;37.730;2023-02-26T01:56:42;96788.88;;;0.90;100.00
62712;BME280;48772;55.586;37.730;2023-02-26T01:59:13;96812.22;;;1.02;100.00
62712;BME280;48772;55.586;37.730;2023-02-26T02:01:40;96796.91;;;0.98;100.00
62712;BME280;48772;55.586;37.730;2023-02-26T02:04:10;96776.59;;;0.90;100.00
62712;BME280;48772;55.586;37.730;2023-02-26T02:06:37;96808.81;;;1.11;100.00
62712;BME280;48772;55.586;37.730;2023-02-26T02:09:05;96762.34;;;0.83;100.00
62712;BME280;48772;55.586;37.730;2023-02-26T02:11:32;96805.91;;;1.05;100.00
62712;BME280;48772;55.586;37.730;2023-02-26T02:14:26;96836.44;;;1.15;100.00
62712;BME280;48772;55.586;37.730;2023-02-26T02:31:13;96783.91;;;0.87;100.00
62712;BME280;48772;55.586;37.730;2023-02-26T02:33:50;96807.69;;;1.04;100.00
62712;BME280;48772;55.586;37.730;2023-02-26T02:39:21;96806.44;;;0.99;100.00
62712;BME280;48772;55.586;37.730;2023-02-26T02:41:55;96782.69;;;0.91;100.00
62712;BME280;48772;55.586;37.730;2023-02-26T02:44:25;96789.84;;;0.98;100.00
62712;BME280;48772;55.586;37.730;2023-02-26T02:46:53;96757.78;;;0.76;100.00
62712;BME280;48772;55.586;37.730;2023-02-26T02:49:33;96703.34;;;0.49;100.00
62712;BME280;48772;55.586;37.730;2023-02-26T02:52:11;96771.88;;;0.84;100.00
62712;BME280;48772;55.586;37.730;2023-02-26T02:54:53;96766.38;;;0.97;100.00
62712;BME280;48772;55.586;37.730;2023-02-26T02:57:43;96758.22;;;0.90;100.00
62712;BME280;48772;55.586;37.730;2023-02-26T03:00:11;96777.44;;;1.00;100.00
62712;BME280;48772;55.586;37.730;2023-02-26T03:02:54;96771.22;;;1.01;100.00
62712;BME280;48772;55.586;37.730;2023-02-26T03:05:22;96760.31;;;0.96;100.00
62712;BME280;48772;55.586;37.730;2023-02-26T03:07:53;96745.38;;;0.87;100.00
62712;BME280;48772;55.586;37.730;2023-02-26T03:10:20;96746.94;;;0.99;100.00
62712;BME280;48772;55.586;37.730;2023-02-26T03:12:46;96749.41;;;0.91;100.00
62712;BME280;48772;55.586;37.730;2023-02-26T03:15:12;96662.28;;;0.59;100.00
62712;BME280;48772;55.586;37.730;2023-02-26T03:17:53;96713.09;;;0.87;100.00
62712;BME280;48772;55.586;37.730;2023-02-26T03:20:28;96752.19;;;0.99;100.00
62712;BME280;48772;55.586;37.730;2023-02-26T03:23:08;96732.41;;;0.95;100.00
62712;BME280;48772;55.586;37.730;2023-02-26T03:28:26;96736.16;;;0.93;100.00
62712;BME280;48772;55.586;37.730;2023-02-26T03:36:10;96738.50;;;0.96;100.00
62712;BME280;48772;55.586;37.730;2023-02-26T03:42:16;96793.34;;;1.08;100.00
62712;BME280;48772;55.586;37.730;2023-02-26T03:44:57;96766.13;;;1.00;100.00
62712;BME280;48772;55.586;37.730;2023-02-26T03:47:25;96717.47;;;0.67;100.00
62712;BME280;48772;55.586;37.730;2023-02-26T03:50:05;96793.22;;;1.10;100.00
62712;BME280;48772;55.586;37.730;2023-02-26T03:52:45;96794.06;;;1.10;100.00
62712;BME280;48772;55.586;37.730;2023-02-26T03:55:32;96757.81;;;0.85;100.00
62712;BME280;48772;55.586;37.730;2023-02-26T03:58:55;96793.59;;;1.05;100.00
62712;BME280;48772;55.586;37.730;2023-02-26T04:02:02;96827.19;;;1.11;100.00
62712;BME280;48772;55.586;37.730;2023-02-26T04:05:11;96823.84;;;1.09;100.00
62712;BME280;48772;55.586;37.730;2023-02-26T04:07:39;96756.66;;;0.69;100.00
62712;BME280;48772;55.586;37.730;2023-02-26T04:10:08;96812.22;;;1.02;100.00
62712;BME280;48772;55.586;37.730;2023-02-26T04:12:35;96757.25;;;0.82;100.00
62712;BME280;48772;55.586;37.730;2023-02-26T04:15:03;96760.41;;;0.76;100.00
62712;BME280;48772;55.586;37.730;2023-02-26T04:17:31;96814.63;;;1.15;100.00
62712;BME280;48772;55.586;37.730;2023-02-26T04:19:59;96727.91;;;0.48;100.00
62712;BME280;48772;55.586;37.730;2023-02-26T04:22:25;96799.66;;;0.96;100.00
62712;BME280;48772;55.586;37.730;2023-02-26T04:24:52;96828.69;;;1.14;100.00
62712;BME280;48772;55.586;37.730;2023-02-26T04:27:19;96792.84;;;0.84;100.00
62712;BME280;48772;55.586;37.730;2023-02-26T04:29:46;96810.84;;;0.98;100.00
62712;BME280;48772;55.586;37.730;2023-02-26T04:32:14;96818.84;;;0.97;100.00
62712;BME280;48772;55.586;37.730;2023-02-26T04:34:40;96858.28;;;1.25;100.00
62712;BME280;48772;55.586;37.730;2023-02-26T04:37:06;96829.47;;;0.95;100.00
62712;BME280;48772;55.586;37.730;2023-02-26T04:39:32;96873.78;;;1.28;100.00
62712;BME280;48772;55.586;37.730;2023-02-26T04:41:58;96893.22;;;1.26;100.00
62712;BME280;48772;55.586;37.730;2023-02-26T04:44:25;96773.75;;;0.63;100.00
62712;BME280;48772;55.586;37.730;2023-02-26T04:46:52;96887.16;;;1.25;100.00
62712;BME280;48772;55.586;37.730;2023-02-26T04:49:19;96892.69;;;1.32;100.00
62712;BME280;48772;55.586;37.730;2023-02-26T04:51:46;96883.59;;;1.36;100.00
62712;BME280;48772;55.586;37.730;2023-02-26T04:54:14;96873.06;;;1.26;100.00
62712;BME280;48772;55.586;37.730;2023-02-26T04:56:40;96856.84;;;1.12;100.00
62712;BME280;48772;55.586;37.730;2023-02-26T04:59:06;96889.94;;;1.33;100.00
62712;BME280;48772;55.586;37.730;2023-02-26T05:01:32;96880.41;;;1.32;100.00
62712;BME280;48772;55.586;37.730;2023-02-26T05:03:58;96921.50;;;1.52;100.00
62712;BME280;48772;55.586;37.730;2023-02-26T05:06:25;96892.97;;;1.38;100.00
62712;BME280;48772;55.586;37.730;2023-02-26T05:08:51;96902.97;;;1.44;100.00
62712;BME280;48772;55.586;37.730;2023-02-26T05:11:18;96948.47;;;1.64;100.00
62712;BME280;48772;55.586;37.730;2023-02-26T05:13:46;96920.63;;;1.42;100.00
62712;BME280;48772;55.586;37.730;2023-02-26T05:16:12;96827.94;;;0.93;100.00
62712;BME280;48772;55.586;37.730;2023-02-26T05:18:38;96953.28;;;1.59;100.00
62712;BME280;48772;55.586;37.730;2023-02-26T05:21:05;96946.13;;;1.61;100.00
62712;BME280;48772;55.586;37.730;2023-02-26T05:23:31;96937.41;;;1.60;100.00
62712;BME280;48772;55.586;37.730;2023-02-26T05:25:59;96933.66;;;1.53;100.00
62712;BME280;48772;55.586;37.730;2023-02-26T05:28:25;96859.47;;;1.12;100.00
62712;BME280;48772;55.586;37.730;2023-02-26T05:30:52;96991.50;;;1.82;100.00
62712;BME280;48772;55.586;37.730;2023-02-26T05:33:19;96977.00;;;1.87;100.00
62712;BME280;48772;55.586;37.730;2023-02-26T05:35:45;96935.63;;;1.61;100.00
62712;BME280;48772;55.586;37.730;2023-02-26T05:38:11;96971.06;;;1.95;100.00
62712;BME280;48772;55.586;37.730;2023-02-26T05:40:38;96859.28;;;1.34;100.00
62712;BME280;48772;55.586;37.730;2023-02-26T05:43:04;96965.31;;;2.20;100.00
62712;BME280;48772;55.586;37.730;2023-02-26T05:45:30;96921.56;;;1.90;100.00
62712;BME280;48772;55.586;37.730;2023-02-26T05:48:01;96923.81;;;2.42;100.00
62712;BME280;48772;55.586;37.730;2023-02-26T05:50:27;96955.03;;;3.39;100.00
62712;BME280;48772;55.586;37.730;2023-02-26T05:52:55;96978.50;;;3.87;100.00
62712;BME280;48772;55.586;37.730;2023-02-26T05:55:21;96912.38;;;2.89;100.00
62712;BME280;48772;55.586;37.730;2023-02-26T05:57:47;96918.94;;;2.57;100.00
62712;BME280;48772;55.586;37.730;2023-02-26T06:00:13;96964.75;;;2.54;100.00
62712;BME280;48772;55.586;37.730;2023-02-26T06:02:40;97004.91;;;2.56;100.00
62712;BME280;48772;55.586;37.730;2023-02-26T06:05:07;96905.50;;;1.74;100.00
62712;BME280;48772;55.586;37.730;2023-02-26T06:07:36;96993.94;;;2.32;100.00
62712;BME280;48772;55.586;37.730;2023-02-26T06:10:02;96992.84;;;2.35;100.00
62712;BME280;48772;55.586;37.730;2023-02-26T06:12:29;96956.28;;;2.13;100.00
62712;BME280;48772;55.586;37.730;2023-02-26T06:14:55;97005.44;;;2.31;100.00
62712;BME280;48772;55.586;37.730;2023-02-26T06:17:23;96909.25;;;1.81;100.00
62712;BME280;48772;55.586;37.730;2023-02-26T06:19:51;96960.19;;;2.18;100.00
62712;BME280;48772;55.586;37.730;2023-02-26T06:22:18;96947.03;;;2.37;100.00
62712;BME280;48772;55.586;37.730;2023-02-26T06:24:45;97001.84;;;2.51;100.00
62712;BME280;48772;55.586;37.730;2023-02-26T06:27:11;96973.31;;;2.37;100.00
62712;BME280;48772;55.586;37.730;2023-02-26T06:29:37;96978.31;;;2.31;100.00
62712;BME280;48772;55.586;37.730;2023-02-26T06:32:04;97032.72;;;2.49;100.00
62712;BME280;48772;55.586;37.730;2023-02-26T06:34:31;97035.31;;;2.40;100.00
62712;BME280;48772;55.586;37.730;2023-02-26T06:37:00;96975.81;;;2.10;100.00
62712;BME280;48772;55.586;37.730;2023-02-26T06:39:27;96911.59;;;1.84;100.00
62712;BME280;48772;55.586;37.730;2023-02-26T06:41:53;96989.47;;;2.04;100.00
62712;BME280;48772;55.586;37.730;2023-02-26T06:44:20;97011.50;;;2.22;100.00
62712;BME280;48772;55.586;37.730;2023-02-26T06:46:46;97058.28;;;2.38;100.00
62712;BME280;48772;55.586;37.730;2023-02-26T06:49:12;96965.22;;;1.72;100.00
62712;BME280;48772;55.586;37.730;2023-02-26T06:51:40;97053.88;;;2.38;100.00
62712;BME280;48772;55.586;37.730;2023-02-26T06:54:07;97100.34;;;2.28;100.00
62712;BME280;48772;55.586;37.730;2023-02-26T06:56:34;97032.16;;;1.78;100.00
62712;BME280;48772;55.586;37.730;2023-02-26T06:59:01;97085.22;;;2.21;100.00
62712;BME280;48772;55.586;37.730;2023-02-26T07:01:27;97046.56;;;1.93;100.00
62712;BME280;48772;55.586;37.730;2023-02-26T07:03:53;96995.91;;;1.72;100.00
62712;BME280;48772;55.586;37.730;2023-02-26T07:06:20;97031.59;;;1.84;100.00
62712;BME280;48772;55.586;37.730;2023-02-26T07:08:46;97129.94;;;2.30;100.00
62712;BME280;48772;55.586;37.730;2023-02-26T07:11:13;96980.38;;;1.59;100.00
62712;BME280;48772;55.586;37.730;2023-02-26T07:13:40;97023.75;;;1.93;100.00
62712;BME280;48772;55.586;37.730;2023-02-26T07:16:07;97111.13;;;2.25;100.00
62712;BME280;48772;55.586;37.730;2023-02-26T07:18:35;97006.25;;;1.64;100.00
62712;BME280;48772;55.586;37.730;2023-02-26T07:21:03;97085.69;;;2.35;100.00
62712;BME280;48772;55.586;37.730;2023-02-26T07:23:29;97106.28;;;2.30;100.00
62712;BME280;48772;55.586;37.730;2023-02-26T07:25:56;97078.41;;;1.99;100.00
62712;BME280;48772;55.586;37.730;2023-02-26T07:28:23;97100.88;;;2.32;100.00
62712;BME280;48772;55.586;37.730;2023-02-26T07:30:49;97101.19;;;2.38;100.00
62712;BME280;48772;55.586;37.730;2023-02-26T07:33:15;97095.75;;;2.21;100.00
62712;BME280;48772;55.586;37.730;2023-02-26T07:35:41;97123.03;;;2.29;100.00
62712;BME280;48772;55.586;37.730;2023-02-26T07:38:08;97094.25;;;2.28;100.00
62712;BME280;48772;55.586;37.730;2023-02-26T07:40:34;97121.25;;;2.30;100.00
62712;BME280;48772;55.586;37.730;2023-02-26T07:43:00;97075.94;;;2.17;100.00
62712;BME280;48772;55.586;37.730;2023-02-26T07:45:27;97084.78;;;2.06;100.00
62712;BME280;48772;55.586;37.730;2023-02-26T07:47:54;97128.91;;;2.52;100.00
62712;BME280;48772;55.586;37.730;2023-02-26T07:50:20;97036.53;;;2.17;100.00
62712;BME280;48772;55.586;37.730;2023-02-26T07:52:51;97062.47;;;2.59;100.00
62712;BME280;48772;55.586;37.730;2023-02-26T07:55:18;97110.41;;;2.91;100.00
62712;BME280;48772;55.586;37.730;2023-02-26T07:57:45;97106.97;;;3.00;100.00
62712;BME280;48772;55.586;37.730;2023-02-26T08:00:13;97124.41;;;2.92;100.00
62712;BME280;48772;55.586;37.730;2023-02-26T08:02:41;97128.69;;;2.83;100.00
62712;BME280;48772;55.586;37.730;2023-02-26T08:05:07;97110.53;;;2.80;100.00
62712;BME280;48772;55.586;37.730;2023-02-26T08:07:33;97136.16;;;2.78;100.00
62712;BME280;48772;55.586;37.730;2023-02-26T08:09:58;97130.72;;;2.80;100.00
62712;BME280;48772;55.586;37.730;2023-02-26T08:12:24;97122.03;;;2.70;100.00
62712;BME280;48772;55.586;37.730;2023-02-26T08:14:50;97144.28;;;2.56;100.00
62712;BME280;48772;55.586;37.730;2023-02-26T08:17:17;97163.38;;;2.58;100.00
62712;BME280;48772;55.586;37.730;2023-02-26T08:19:42;97143.84;;;2.51;100.00
62712;BME280;48772;55.586;37.730;2023-02-26T08:22:09;97155.75;;;2.55;100.00
62712;BME280;48772;55.586;37.730;2023-02-26T08:24:34;97101.97;;;2.20;100.00
62712;BME280;48772;55.586;37.730;2023-02-26T08:27:00;97160.25;;;2.34;100.00
62712;BME280;48772;55.586;37.730;2023-02-26T08:29:26;97155.72;;;2.36;100.00
62712;BME280;48772;55.586;37.730;2023-02-26T08:31:52;97178.34;;;2.28;100.00
62712;BME280;48772;55.586;37.730;2023-02-26T08:34:18;97163.78;;;2.14;100.00
62712;BME280;48772;55.586;37.730;2023-02-26T08:36:44;97184.16;;;2.61;100.00
62712;BME280;48772;55.586;37.730;2023-02-26T08:39:09;97173.78;;;2.69;100.00
62712;BME280;48772;55.586;37.730;2023-02-26T08:41:47;97075.72;;;2.48;100.00
62712;BME280;48772;55.586;37.730;2023-02-26T08:44:32;97170.53;;;3.34;100.00
62712;BME280;48772;55.586;37.730;2023-02-26T08:46:59;97197.44;;;3.47;100.00
62712;BME280;48772;55.586;37.730;2023-02-26T08:49:25;97198.81;;;3.51;100.00
62712;BME280;48772;55.586;37.730;2023-02-26T08:51:51;97225.69;;;3.74;100.00
62712;BME280;48772;55.586;37.730;2023-02-26T08:54:16;97210.47;;;3.48;100.00
62712;BME280;48772;55.586;37.730;2023-02-26T08:56:43;97198.94;;;3.11;100.00
62712;BME280;48772;55.586;37.730;2023-02-26T08:59:08;97261.31;;;3.30;100.00
62712;BME280;48772;55.586;37.730;2023-02-26T09:01:36;97199.19;;;2.99;100.00
62712;BME280;48772;55.586;37.730;2023-02-26T09:04:02;97233.56;;;2.97;100.00
62712;BME280;48772;55.586;37.730;2023-02-26T09:06:28;97196.22;;;2.73;100.00
62712;BME280;48772;55.586;37.730;2023-02-26T09:08:54;97254.00;;;2.84;100.00
62712;BME280;48772;55.586;37.730;2023-02-26T09:11:20;97253.00;;;2.76;100.00
62712;BME280;48772;55.586;37.730;2023-02-26T09:13:46;97199.19;;;2.50;100.00
62712;BME280;48772;55.586;37.730;2023-02-26T09:16:12;97220.00;;;2.62;100.00
62712;BME280;48772;55.586;37.730;2023-02-26T09:18:38;97243.31;;;2.76;100.00
62712;BME280;48772;55.586;37.730;2023-02-26T09:21:04;97216.16;;;2.76;100.00
62712;BME280;48772;55.586;37.730;2023-02-26T09:23:30;97246.94;;;2.75;100.00
62712;BME280;48772;55.586;37.730;2023-02-26T09:29:11;97151.72;;;2.02;100.00
62712;BME280;48772;55.586;37.730;2023-02-26T09:31:38;97283.41;;;2.59;100.00
62712;BME280;48772;55.586;37.730;2023-02-26T09:34:04;97263.41;;;2.47;100.00
62712;BME280;48772;55.586;37.730;2023-02-26T09:37:24;97252.25;;;2.34;100.00
62712;BME280;48772;55.586;37.730;2023-02-26T09:40:04;97299.84;;;2.52;100.00
62712;BME280;48772;55.586;37.730;2023-02-26T09:42:58;97289.19;;;2.53;100.00
62712;BME280;48772;55.586;37.730;2023-02-26T09:45:33;97202.69;;;2.20;100.00
62712;BME280;48772;55.586;37.730;2023-02-26T09:48:03;97223.22;;;2.36;100.00
62712;BME280;48772;55.586;37.730;2023-02-26T09:50:46;97274.16;;;2.74;100.00
62712;BME280;48772;55.586;37.730;2023-02-26T09:53:22;97296.16;;;2.64;100.00
62712;BME280;48772;55.586;37.730;2023-02-26T09:55:49;97298.81;;;2.73;100.00
62712;BME280;48772;55.586;37.730;2023-02-26T09:58:29;97299.28;;;2.78;100.00
62712;BME280;48772;55.586;37.730;2023-02-26T10:12:57;97348.81;;;3.03;100.00
62712;BME280;48772;55.586;37.730;2023-02-26T10:25:39;97359.81;;;3.18;100.00
62712;BME280;48772;55.586;37.730;2023-02-26T10:28:43;97348.56;;;3.16;100.00
62712;BME280;48772;55.586;37.730;2023-02-26T10:34:36;97228.59;;;2.55;100.00
62712;BME280;48772;55.586;37.730;2023-02-26T10:37:17;97242.53;;;2.55;100.00
62712;BME280;48772;55.586;37.730;2023-02-26T10:40:02;97304.09;;;2.73;100.00
62712;BME280;48772;55.586;37.730;2023-02-26T10:42:51;97238.00;;;2.57;100.00
62712;BME280;48772;55.586;37.730;2023-02-26T10:45:23;97358.59;;;3.31;100.00
62712;BME280;48772;55.586;37.730;2023-02-26T10:48:08;97316.69;;;3.09;100.00
62712;BME280;48772;55.586;37.730;2023-02-26T10:50:42;97270.16;;;2.70;100.00
62712;BME280;48772;55.586;37.730;2023-02-26T10:53:12;97290.16;;;2.82;100.00
62712;BME280;48772;55.586;37.730;2023-02-26T10:55:51;97304.47;;;2.99;100.00
62712;BME280;48772;55.586;37.730;2023-02-26T10:58:25;97250.69;;;2.52;100.00
62712;BME280;48772;55.586;37.730;2023-02-26T11:00:57;97249.88;;;2.52;100.00
62712;BME280;48772;55.586;37.730;2023-02-26T11:03:40;97340.28;;;3.20;100.00
62712;BME280;48772;55.586;37.730;2023-02-26T11:06:09;97371.44;;;3.15;100.00
62712;BME280;48772;55.586;37.730;2023-02-26T11:08:42;97346.53;;;3.19;100.00
62712;BME280;48772;55.586;37.730;2023-02-26T11:11:40;97355.09;;;3.21;100.00
62712;BME280;48772;55.586;37.730;2023-02-26T11:14:32;97352.78;;;3.28;100.00
62712;BME280;48772;55.586;37.730;2023-02-26T11:17:22;97306.69;;;3.03;100.00
62712;BME280;48772;55.586;37.730;2023-02-26T11:20:11;97366.75;;;3.19;100.00
62712;BME280;48772;55.586;37.730;2023-02-26T11:22:44;97377.22;;;3.09;100.00
62712;BME280;48772;55.586;37.730;2023-02-26T11:25:16;97370.84;;;3.02;100.00
62712;BME280;48772;55.586;37.730;2023-02-26T11:32:16;97313.72;;;2.63;100.00
62712;BME280;48772;55.586;37.730;2023-02-26T11:34:47;97351.44;;;3.03;100.00
62712;BME280;48772;55.586;37.730;2023-02-26T11:37:27;97361.19;;;3.12;100.00
62712;BME280;48772;55.586;37.730;2023-02-26T11:39:57;97354.97;;;2.83;100.00
62712;BME280;48772;55.586;37.730;2023-02-26T11:42:25;97372.22;;;3.06;100.00
62712;BME280;48772;55.586;37.730;2023-02-26T11:44:52;97388.03;;;3.06;100.00
62712;BME280;48772;55.586;37.730;2023-02-26T11:47:28;97392.28;;;3.28;100.00
62712;BME280;48772;55.586;37.730;2023-02-26T11:50:00;97350.84;;;3.30;100.00
62712;BME280;48772;55.586;37.730;2023-02-26T11:52:39;97287.81;;;2.89;100.00
62712;BME280;48772;55.586;37.730;2023-02-26T11:55:18;97398.81;;;3.33;100.00
62712;BME280;48772;55.586;37.730;2023-02-26T11:57:50;97342.66;;;3.23;100.00
62712;BME280;48772;55.586;37.730;2023-02-26T12:00:20;97377.03;;;3.31;100.00
62712;BME280;48772;55.586;37.730;2023-02-26T12:02:48;97396.72;;;3.27;100.00
62712;BME280;48772;55.586;37.730;2023-02-26T12:05:15;97364.78;;;3.11;100.00
62712;BME280;48772;55.586;37.730;2023-02-26T12:07:42;97351.44;;;3.03;100.00
62712;BME280;48772;55.586;37.730;2023-02-26T12:10:26;97383.97;;;3.32;100.00
62712;BME280;48772;55.586;37.730;2023-02-26T12:15:57;97336.31;;;3.35;100.00
62712;BME280;48772;55.586;37.730;2023-02-26T12:18:52;97347.69;;;3.45;100.00
62712;BME280;48772;55.586;37.730;2023-02-26T12:24:03;97369.44;;;3.38;100.00
62712;BME280;48772;55.586;37.730;2023-02-26T12:26:42;97369.97;;;3.32;100.00
62712;BME280;48772;55.586;37.730;2023-02-26T12:38:09;97385.13;;;3.09;100.00
62712;BME280;48772;55.586;37.730;2023-02-26T12:43:48;97409.47;;;3.02;100.00
62712;BME280;48772;55.586;37.730;2023-02-26T12:46:25;97282.34;;;2.41;100.00
62712;BME280;48772;55.586;37.730;2023-02-26T12:49:09;97413.78;;;2.73;100.00
62712;BME280;48772;55.586;37.730;2023-02-26T12:57:39;97418.22;;;1.13;100.00
62712;BME280;48772;55.586;37.730;2023-02-26T13:21:59;97483.13;;;1.33;100.00
62712;BME280;48772;55.586;37.730;2023-02-26T13:24:42;97442.91;;;1.22;100.00
62712;BME280;48772;55.586;37.730;2023-02-26T13:27:11;97488.25;;;1.46;100.00
62712;BME280;48772;55.586;37.730;2023-02-26T13:29:46;97426.81;;;1.04;100.00
62712;BME280;48772;55.586;37.730;2023-02-26T13:35:16;97517.72;;;1.38;100.00
62712;BME280;48772;55.586;37.730;2023-02-26T13:37:52;97458.53;;;1.12;100.00
62712;BME280;48772;55.586;37.730;2023-02-26T13:43:32;97497.56;;;1.17;100.00
62712;BME280;48772;55.586;37.730;2023-02-26T13:49:12;97528.94;;;1.18;100.00
62712;BME280;48772;55.586;37.730;2023-02-26T13:51:43;97521.94;;;0.84;100.00
62712;BME280;48772;55.586;37.730;2023-02-26T13:59:24;97556.63;;;0.77;100.00
62712;BME280;48772;55.586;37.730;2023-02-26T14:06:50;97491.53;;;0.47;100.00
62712;BME280;48772;55.586;37.730;2023-02-26T14:15:19;97579.81;;;0.94;100.00
62712;BME280;48772;55.586;37.730;2023-02-26T14:20:15;97507.06;;;0.27;100.00
62712;BME280;48772;55.586;37.730;2023-02-26T14:22:46;97573.38;;;0.63;100.00
62712;BME280;48772;55.586;37.730;2023-02-26T14:25:33;97598.84;;;0.38;100.00
62712;BME280;48772;55.586;37.730;2023-02-26T14:28:30;97640.81;;;0.61;100.00
62712;BME280;48772;55.586;37.730;2023-02-26T14:34:30;97560.31;;;0.03;100.00
62712;BME280;48772;55.586;37.730;2023-02-26T14:39:19;97527.81;;;-0.30;100.00
62712;BME280;48772;55.586;37.730;2023-02-26T14:41:52;97554.25;;;-0.10;100.00
62712;BME280;48772;55.586;37.730;2023-02-26T14:44:28;97590.06;;;0.03;100.00
62712;BME280;48772;55.586;37.730;2023-02-26T14:47:13;97612.09;;;0.00;100.00
62712;BME280;48772;55.586;37.730;2023-02-26T14:49:44;97541.56;;;-0.39;100.00
62712;BME280;48772;55.586;37.730;2023-02-26T15:08:17;97677.94;;;0.19;100.00
62712;BME280;48772;55.586;37.730;2023-02-26T15:10:52;97658.78;;;0.06;100.00
62712;BME280;48772;55.586;37.730;2023-02-26T15:13:53;97672.63;;;0.08;100.00
62712;BME280;48772;55.586;37.730;2023-02-26T15:17:03;97606.78;;;-0.49;100.00
62712;BME280;48772;55.586;37.730;2023-02-26T15:20:03;97664.69;;;-0.03;100.00
62712;BME280;48772;55.586;37.730;2023-02-26T15:22:59;97696.72;;;0.13;100.00
62712;BME280;48772;55.586;37.730;2023-02-26T15:25:36;97600.09;;;-0.65;100.00
62712;BME280;48772;55.586;37.730;2023-02-26T15:28:04;97689.06;;;-0.28;100.00
62712;BME280;48772;55.586;37.730;2023-02-26T15:30:34;97686.47;;;-0.40;100.00
62712;BME280;48772;55.586;37.730;2023-02-26T15:33:06;97649.19;;;-0.56;100.00
62712;BME280;48772;55.586;37.730;2023-02-26T15:35:34;97715.38;;;-0.17;100.00
62712;BME280;48772;55.586;37.730;2023-02-26T15:38:01;97737.38;;;-0.19;100.00
62712;BME280;48772;55.586;37.730;2023-02-26T15:40:36;97735.59;;;-0.19;100.00
62712;BME280;48772;55.586;37.730;2023-02-26T15:43:04;97658.94;;;-0.58;100.00
62712;BME280;48772;55.586;37.730;2023-02-26T15:45:36;97716.41;;;-0.32;100.00
62712;BME280;48772;55.586;37.730;2023-02-26T15:48:13;97708.88;;;-0.36;100.00
62712;BME280;48772;55.586;37.730;2023-02-26T15:50:43;97742.31;;;-0.15;100.00
62712;BME280;48772;55.586;37.730;2023-02-26T15:56:14;97691.34;;;-0.61;100.00
62712;BME280;48772;55.586;37.730;2023-02-26T15:59:00;97788.69;;;-0.17;100.00
62712;BME280;48772;55.586;37.730;2023-02-26T16:01:39;97746.56;;;-0.26;100.00
62712;BME280;48772;55.586;37.730;2023-02-26T16:04:15;97784.50;;;-0.19;100.00
62712;BME280;48772;55.586;37.730;2023-02-26T16:06:48;97701.41;;;-1.06;100.00
62712;BME280;48772;55.586;37.730;2023-02-26T16:09:35;97794.22;;;-0.34;100.00
62712;BME280;48772;55.586;37.730;2023-02-26T16:12:06;97780.19;;;-0.33;100.00